Elisalex Schulte — 9V9154 — position and weather

sailwx.info

Track history (hours):
 
Tides and Currents Weather Stations Pressure Air Temp Water Temp Dewpoint Dewpoint Depression Visibility Wind Speed Wind Dir Waves Ship Positions

Elisalex Schulte

Last reported at 2017-Jan-20 15:34 UTC. Time now 2017-Jan-20 15:56 UTC.
Position N 53°58' E 008°32'.

Length 144 m; draft 7.5 m.

Type: Tanker. MMSI: 563052000.

Date/timePositionNaut miles runAvg speedWind from/ knotsBaromVisibWave heightAir tempDewpointWater temp
2017-Jan-20 15:34N 53°58' E 008°32'1110.7
2017-Jan-20 14:33N 53°51' E 008°46'1312.7
2017-Jan-20 13:33N 53°53' E 009°07'1010.5
2017-Jan-20 12:34N 53°48' E 009°23'1212.1
2017-Jan-20 11:33N 53°37' E 009°33'1211.6
2017-Jan-20 10:33N 53°33' E 009°51'5 5.0
2017-Jan-20 09:33N 53°30' E 009°58'0 0.0
2017-Jan-20 08:33N 53°30' E 009°58'0 0.0
2017-Jan-20 07:33N 53°30' E 009°58'0 0.0
2017-Jan-20 06:33N 53°30' E 009°58'0 0.0
2017-Jan-20 05:33N 53°30' E 009°58'0 0.0
2017-Jan-20 04:33N 53°30' E 009°58'0 0.0
2017-Jan-20 03:33N 53°30' E 009°58'0 0.0
2017-Jan-20 02:33N 53°30' E 009°58'0 0.0
2017-Jan-20 01:34N 53°30' E 009°58'0 0.0
2017-Jan-20 00:33N 53°30' E 009°58'0 0.0
2017-Jan-19 23:33N 53°30' E 009°58'0 0.0
2017-Jan-19 22:33N 53°30' E 009°58'0 0.0
2017-Jan-19 21:33N 53°30' E 009°58'0 0.0
2017-Jan-19 20:33N 53°30' E 009°58'0 0.0
2017-Jan-19 19:33N 53°30' E 009°58'0 0.0
2017-Jan-19 18:33N 53°30' E 009°58'0 0.0
2017-Jan-19 17:33N 53°30' E 009°58'0 0.0
2017-Jan-19 16:33N 53°30' E 009°58'0 0.0
2017-Jan-19 15:33N 53°30' E 009°58'0 0.0
2017-Jan-19 14:33N 53°30' E 009°58'0 0.0
2017-Jan-19 13:33N 53°30' E 009°58'0 0.0
2017-Jan-19 12:33N 53°30' E 009°58'0 0.0
2017-Jan-19 11:33N 53°30' E 009°58'0 0.0
2017-Jan-19 10:33N 53°30' E 009°58'0 0.0
2017-Jan-19 09:33N 53°30' E 009°58'0 0.0
2017-Jan-19 08:33N 53°30' E 009°58'0 0.0
2017-Jan-19 07:33N 53°30' E 009°58'0 0.0
2017-Jan-19 06:33N 53°30' E 009°58'0 0.0
2017-Jan-19 05:33N 53°30' E 009°58'0 0.0
2017-Jan-19 04:33N 53°30' E 009°58'0 0.0
2017-Jan-19 03:33N 53°30' E 009°58'0 0.0
2017-Jan-19 02:33N 53°30' E 009°58'0 0.0
2017-Jan-19 01:33N 53°30' E 009°58'0 0.0
2017-Jan-19 00:33N 53°30' E 009°58'0 0.0
2017-Jan-18 23:33N 53°30' E 009°58'0 0.0
2017-Jan-18 22:33N 53°30' E 009°58'0 0.0
2017-Jan-18 21:33N 53°30' E 009°58'0 0.0
2017-Jan-18 20:33N 53°30' E 009°58'0 0.0
2017-Jan-18 19:33N 53°30' E 009°58'0 0.0
2017-Jan-18 18:33N 53°30' E 009°58'0 0.0
2017-Jan-18 17:33N 53°30' E 009°58'0 0.0
2017-Jan-18 16:32N 53°30' E 009°58'0 0.0
2017-Jan-18 15:31N 53°30' E 009°58'0 0.0
2017-Jan-18 14:32N 53°30' E 009°58'0 0.0
2017-Jan-18 13:17N 53°30' E 009°58'0 0.0
2017-Jan-18 12:31N 53°30' E 009°58'0 0.0
2017-Jan-18 11:32N 53°30' E 009°58'0 0.0
2017-Jan-18 10:29N 53°30' E 009°58'2 1.7
2017-Jan-18 09:33N 53°32' E 009°56'5 5.4
2017-Jan-18 08:33N 53°33' E 009°48'10 9.8
2017-Jan-18 07:33N 53°37' E 009°33'1110.7
2017-Jan-18 06:34N 53°46' E 009°23'1111.0
2017-Jan-18 05:34N 53°53' E 009°08'1111.3
2017-Jan-18 04:33N 53°50' E 008°49'1110.8
2017-Jan-18 03:33N 53°58' E 008°36'1412.9
2017-Jan-18 02:30N 53°60' E 008°13'5 5.2
2017-Jan-18 01:31N 54°02' E 008°06'1 1.3
2017-Jan-18 00:33N 54°03' E 008°08'0 0.0
2017-Jan-17 23:33N 54°03' E 008°08'0 0.0
2017-Jan-17 22:33N 54°03' E 008°08'0 0.1
2017-Jan-17 21:32N 54°03' E 008°07'0 0.1
2017-Jan-17 20:33N 54°03' E 008°07'0 0.0
2017-Jan-17 19:33N 54°03' E 008°07'0 0.0
2017-Jan-17 18:33N 54°03' E 008°07'0 0.0
2017-Jan-17 17:04N 54°03' E 008°07'0 0.1
2017-Jan-17 16:32N 54°03' E 008°07'0 0.1
2017-Jan-17 15:32N 54°03' E 008°08'0 0.0
2017-Jan-17 14:29N 54°03' E 008°08'0 0.0
2017-Jan-17 13:33N 54°03' E 008°08'0 0.0
2017-Jan-17 12:33N 54°03' E 008°08'0 0.0
2017-Jan-17 11:33N 54°03' E 008°08'0 0.0
2017-Jan-17 10:33N 54°03' E 008°08'0 0.1
2017-Jan-17 09:33N 54°03' E 008°07'0 0.0
2017-Jan-17 08:33N 54°03' E 008°07'0 0.0
2017-Jan-17 07:33N 54°03' E 008°07'0 0.0
2017-Jan-17 06:31N 54°03' E 008°07'0 0.0
2017-Jan-17 05:17N 54°03' E 008°07'1 0.3
2017-Jan-17 00:04N 54°03' E 008°05'198 9.6
2017-Jan-16 03:22N 52°06' E 003°40'910.9
2017-Jan-16 02:33N 52°03' E 003°53'1111.4
2017-Jan-16 01:34N 51°57' E 004°09'2 2.4
2017-Jan-16 00:34N 51°56' E 004°12'0 0.0
2017-Jan-15 23:34N 51°56' E 004°12'0 0.0
2017-Jan-15 22:34N 51°56' E 004°12'0 0.0
2017-Jan-15 21:34N 51°56' E 004°12'0 0.0
2017-Jan-15 20:34N 51°56' E 004°12'0 0.0
2017-Jan-15 19:34N 51°56' E 004°12'0 0.0
2017-Jan-15 18:33N 51°56' E 004°12'0 0.0
2017-Jan-15 17:33N 51°56' E 004°12'0 0.0
2017-Jan-15 16:34N 51°56' E 004°12'0 0.0
2017-Jan-15 15:34N 51°56' E 004°12'0 0.0
2017-Jan-15 14:33N 51°56' E 004°12'0 0.0
2017-Jan-15 13:34N 51°56' E 004°12'0 0.0
2017-Jan-15 12:34N 51°56' E 004°12'0 0.0
2017-Jan-15 11:34N 51°56' E 004°12'0 0.0
2017-Jan-15 10:34N 51°56' E 004°12'0 0.0
2017-Jan-15 09:33N 51°56' E 004°12'0 0.0
2017-Jan-15 08:34N 51°56' E 004°12'0 0.0
2017-Jan-15 07:34N 51°56' E 004°12'0 0.0
2017-Jan-15 06:33N 51°56' E 004°12'0 0.0
2017-Jan-15 05:34N 51°56' E 004°12'0 0.0
2017-Jan-15 04:34N 51°56' E 004°12'0 0.0
2017-Jan-15 03:33N 51°56' E 004°12'0 0.0
2017-Jan-15 02:34N 51°56' E 004°12'0 0.0
2017-Jan-15 01:34N 51°56' E 004°12'0 0.0
2017-Jan-15 00:34N 51°56' E 004°12'3 2.5
2017-Jan-14 23:33N 51°57' E 004°09'1010.1
2017-Jan-14 22:33N 51°60' E 003°53'7 7.3
2017-Jan-14 21:33N 52°05' E 003°45'5 4.0
2017-Jan-14 20:20N 52°10' E 003°44'0 0.0
2017-Jan-14 13:29N 52°10' E 003°44'0 0.1
2017-Jan-14 12:19N 52°10' E 003°44'2 0.3
2017-Jan-14 06:33N 52°12' E 003°42'1 0.1
2017-Jan-13 23:31N 52°11' E 003°43'1 0.2
2017-Jan-13 19:26N 52°11' E 003°43'1 0.5
2017-Jan-13 16:18N 52°10' E 003°44'0 0.0
2017-Jan-13 12:24N 52°10' E 003°44'0 0.0
2017-Jan-13 11:21N 52°10' E 003°44'2 2.6
2017-Jan-13 10:33N 52°10' E 003°41'195 6.9
2017-Jan-12 06:24N 54°01' E 008°08'7 7.9
2017-Jan-12 05:32N 54°00' E 008°20'1211.8
2017-Jan-12 04:33N 53°57' E 008°39'1111.2
2017-Jan-12 03:33N 53°51' E 008°54'10 9.8
2017-Jan-12 02:33N 53°53' E 009°11'1110.6
2017-Jan-12 01:33N 53°46' E 009°24'1110.7
2017-Jan-12 00:33N 53°37' E 009°34'9 9.3
2017-Jan-11 23:33N 53°33' E 009°48'5 5.5
2017-Jan-11 22:33N 53°31' E 009°57'1 0.8
2017-Jan-11 21:32N 53°30' E 009°58'0 0.0
2017-Jan-11 20:32N 53°30' E 009°58'0 0.0
2017-Jan-11 19:32N 53°30' E 009°58'0 0.0
2017-Jan-11 18:32N 53°30' E 009°58'0 0.0
2017-Jan-11 17:32N 53°30' E 009°58'0 0.0
2017-Jan-11 16:32N 53°30' E 009°58'0 0.0
2017-Jan-11 15:32N 53°30' E 009°58'0 0.0
2017-Jan-11 14:32N 53°30' E 009°58'0 0.0
2017-Jan-11 13:26N 53°30' E 009°58'0 0.0
2017-Jan-11 12:29N 53°30' E 009°58'0 0.0
2017-Jan-11 11:32N 53°30' E 009°58'0 0.0
2017-Jan-11 10:32N 53°30' E 009°58'0 0.0
2017-Jan-11 09:32N 53°30' E 009°58'0 0.0
2017-Jan-11 08:32N 53°30' E 009°58'0 0.0
2017-Jan-11 07:32N 53°30' E 009°58'0 0.0
2017-Jan-11 06:32N 53°30' E 009°58'0 0.0
2017-Jan-11 05:29N 53°30' E 009°58'0 0.0
2017-Jan-11 04:32N 53°30' E 009°58'0 0.0
2017-Jan-11 03:32N 53°30' E 009°58'0 0.0
2017-Jan-11 02:29N 53°30' E 009°58'0 0.0
2017-Jan-11 01:32N 53°30' E 009°58'0 0.0
2017-Jan-11 00:29N 53°30' E 009°58'0 0.0
2017-Jan-10 23:32N 53°30' E 009°58'0 0.0
2017-Jan-10 22:32N 53°30' E 009°58'0 0.0
2017-Jan-10 21:32N 53°30' E 009°58'0 0.0
2017-Jan-10 20:32N 53°30' E 009°58'0 0.0
2017-Jan-10 19:29N 53°30' E 009°58'0 0.0
2017-Jan-10 18:26N 53°30' E 009°58'0 0.0
2017-Jan-10 17:32N 53°30' E 009°58'0 0.0
2017-Jan-10 16:32N 53°30' E 009°58'  
Track history (hours):
 
Tides and Currents Weather Stations Pressure Air Temp Water Temp Dewpoint Dewpoint Depression Visibility Wind Speed Wind Dir Waves Ship Positions

Elisalex Schulte

Last reported at 2017-Jan-20 15:34 UTC. Time now 2017-Jan-20 15:56 UTC.
Position N 53°58' E 008°32'.

Length 144 m; draft 7.5 m.

Type: Tanker. MMSI: 563052000.

Date/timePositionNaut miles runAvg speedWind from/ knotsBaromVisibWave heightAir tempDewpointWater temp
2017-Jan-20 15:34N 53°58' E 008°32'1110.7
2017-Jan-20 14:33N 53°51' E 008°46'1312.7
2017-Jan-20 13:33N 53°53' E 009°07'1010.5
2017-Jan-20 12:34N 53°48' E 009°23'1212.1
2017-Jan-20 11:33N 53°37' E 009°33'1211.6
2017-Jan-20 10:33N 53°33' E 009°51'5 5.0
2017-Jan-20 09:33N 53°30' E 009°58'0 0.0
2017-Jan-20 08:33N 53°30' E 009°58'0 0.0
2017-Jan-20 07:33N 53°30' E 009°58'0 0.0
2017-Jan-20 06:33N 53°30' E 009°58'0 0.0
2017-Jan-20 05:33N 53°30' E 009°58'0 0.0
2017-Jan-20 04:33N 53°30' E 009°58'0 0.0
2017-Jan-20 03:33N 53°30' E 009°58'0 0.0
2017-Jan-20 02:33N 53°30' E 009°58'0 0.0
2017-Jan-20 01:34N 53°30' E 009°58'0 0.0
2017-Jan-20 00:33N 53°30' E 009°58'0 0.0
2017-Jan-19 23:33N 53°30' E 009°58'0 0.0
2017-Jan-19 22:33N 53°30' E 009°58'0 0.0
2017-Jan-19 21:33N 53°30' E 009°58'0 0.0
2017-Jan-19 20:33N 53°30' E 009°58'0 0.0
2017-Jan-19 19:33N 53°30' E 009°58'0 0.0
2017-Jan-19 18:33N 53°30' E 009°58'0 0.0
2017-Jan-19 17:33N 53°30' E 009°58'0 0.0
2017-Jan-19 16:33N 53°30' E 009°58'0 0.0
2017-Jan-19 15:33N 53°30' E 009°58'0 0.0
2017-Jan-19 14:33N 53°30' E 009°58'0 0.0
2017-Jan-19 13:33N 53°30' E 009°58'0 0.0
2017-Jan-19 12:33N 53°30' E 009°58'0 0.0
2017-Jan-19 11:33N 53°30' E 009°58'0 0.0
2017-Jan-19 10:33N 53°30' E 009°58'0 0.0
2017-Jan-19 09:33N 53°30' E 009°58'0 0.0
2017-Jan-19 08:33N 53°30' E 009°58'0 0.0
2017-Jan-19 07:33N 53°30' E 009°58'0 0.0
2017-Jan-19 06:33N 53°30' E 009°58'0 0.0
2017-Jan-19 05:33N 53°30' E 009°58'0 0.0
2017-Jan-19 04:33N 53°30' E 009°58'0 0.0
2017-Jan-19 03:33N 53°30' E 009°58'0 0.0
2017-Jan-19 02:33N 53°30' E 009°58'0 0.0
2017-Jan-19 01:33N 53°30' E 009°58'0 0.0
2017-Jan-19 00:33N 53°30' E 009°58'0 0.0
2017-Jan-18 23:33N 53°30' E 009°58'0 0.0
2017-Jan-18 22:33N 53°30' E 009°58'0 0.0
2017-Jan-18 21:33N 53°30' E 009°58'0 0.0
2017-Jan-18 20:33N 53°30' E 009°58'0 0.0
2017-Jan-18 19:33N 53°30' E 009°58'0 0.0
2017-Jan-18 18:33N 53°30' E 009°58'0 0.0
2017-Jan-18 17:33N 53°30' E 009°58'0 0.0
2017-Jan-18 16:32N 53°30' E 009°58'0 0.0
2017-Jan-18 15:31N 53°30' E 009°58'0 0.0
2017-Jan-18 14:32N 53°30' E 009°58'0 0.0
2017-Jan-18 13:17N 53°30' E 009°58'0 0.0
2017-Jan-18 12:31N 53°30' E 009°58'0 0.0
2017-Jan-18 11:32N 53°30' E 009°58'0 0.0
2017-Jan-18 10:29N 53°30' E 009°58'2 1.7
2017-Jan-18 09:33N 53°32' E 009°56'5 5.4
2017-Jan-18 08:33N 53°33' E 009°48'10 9.8
2017-Jan-18 07:33N 53°37' E 009°33'1110.7
2017-Jan-18 06:34N 53°46' E 009°23'1111.0
2017-Jan-18 05:34N 53°53' E 009°08'1111.3
2017-Jan-18 04:33N 53°50' E 008°49'1110.8
2017-Jan-18 03:33N 53°58' E 008°36'1412.9
2017-Jan-18 02:30N 53°60' E 008°13'5 5.2
2017-Jan-18 01:31N 54°02' E 008°06'1 1.3
2017-Jan-18 00:33N 54°03' E 008°08'0 0.0
2017-Jan-17 23:33N 54°03' E 008°08'0 0.0
2017-Jan-17 22:33N 54°03' E 008°08'0 0.1
2017-Jan-17 21:32N 54°03' E 008°07'0 0.1
2017-Jan-17 20:33N 54°03' E 008°07'0 0.0
2017-Jan-17 19:33N 54°03' E 008°07'0 0.0
2017-Jan-17 18:33N 54°03' E 008°07'0 0.0
2017-Jan-17 17:04N 54°03' E 008°07'0 0.1
2017-Jan-17 16:32N 54°03' E 008°07'0 0.1
2017-Jan-17 15:32N 54°03' E 008°08'0 0.0
2017-Jan-17 14:29N 54°03' E 008°08'0 0.0
2017-Jan-17 13:33N 54°03' E 008°08'0 0.0
2017-Jan-17 12:33N 54°03' E 008°08'0 0.0
2017-Jan-17 11:33N 54°03' E 008°08'0 0.0
2017-Jan-17 10:33N 54°03' E 008°08'0 0.1
2017-Jan-17 09:33N 54°03' E 008°07'0 0.0
2017-Jan-17 08:33N 54°03' E 008°07'0 0.0
2017-Jan-17 07:33N 54°03' E 008°07'0 0.0
2017-Jan-17 06:31N 54°03' E 008°07'0 0.0
2017-Jan-17 05:17N 54°03' E 008°07'1 0.3
2017-Jan-17 00:04N 54°03' E 008°05'198 9.6
2017-Jan-16 03:22N 52°06' E 003°40'910.9
2017-Jan-16 02:33N 52°03' E 003°53'1111.4
2017-Jan-16 01:34N 51°57' E 004°09'2 2.4
2017-Jan-16 00:34N 51°56' E 004°12'0 0.0
2017-Jan-15 23:34N 51°56' E 004°12'0 0.0
2017-Jan-15 22:34N 51°56' E 004°12'0 0.0
2017-Jan-15 21:34N 51°56' E 004°12'0 0.0
2017-Jan-15 20:34N 51°56' E 004°12'0 0.0
2017-Jan-15 19:34N 51°56' E 004°12'0 0.0
2017-Jan-15 18:33N 51°56' E 004°12'0 0.0
2017-Jan-15 17:33N 51°56' E 004°12'0 0.0
2017-Jan-15 16:34N 51°56' E 004°12'0 0.0
2017-Jan-15 15:34N 51°56' E 004°12'0 0.0
2017-Jan-15 14:33N 51°56' E 004°12'0 0.0
2017-Jan-15 13:34N 51°56' E 004°12'0 0.0
2017-Jan-15 12:34N 51°56' E 004°12'0 0.0
2017-Jan-15 11:34N 51°56' E 004°12'0 0.0
2017-Jan-15 10:34N 51°56' E 004°12'0 0.0
2017-Jan-15 09:33N 51°56' E 004°12'0 0.0
2017-Jan-15 08:34N 51°56' E 004°12'0 0.0
2017-Jan-15 07:34N 51°56' E 004°12'0 0.0
2017-Jan-15 06:33N 51°56' E 004°12'0 0.0
2017-Jan-15 05:34N 51°56' E 004°12'0 0.0
2017-Jan-15 04:34N 51°56' E 004°12'0 0.0
2017-Jan-15 03:33N 51°56' E 004°12'0 0.0
2017-Jan-15 02:34N 51°56' E 004°12'0 0.0
2017-Jan-15 01:34N 51°56' E 004°12'0 0.0
2017-Jan-15 00:34N 51°56' E 004°12'3 2.5
2017-Jan-14 23:33N 51°57' E 004°09'1010.1
2017-Jan-14 22:33N 51°60' E 003°53'7 7.3
2017-Jan-14 21:33N 52°05' E 003°45'5 4.0
2017-Jan-14 20:20N 52°10' E 003°44'0 0.0
2017-Jan-14 13:29N 52°10' E 003°44'0 0.1
2017-Jan-14 12:19N 52°10' E 003°44'2 0.3
2017-Jan-14 06:33N 52°12' E 003°42'1 0.1
2017-Jan-13 23:31N 52°11' E 003°43'1 0.2
2017-Jan-13 19:26N 52°11' E 003°43'1 0.5
2017-Jan-13 16:18N 52°10' E 003°44'0 0.0
2017-Jan-13 12:24N 52°10' E 003°44'0 0.0
2017-Jan-13 11:21N 52°10' E 003°44'2 2.6
2017-Jan-13 10:33N 52°10' E 003°41'195 6.9
2017-Jan-12 06:24N 54°01' E 008°08'7 7.9
2017-Jan-12 05:32N 54°00' E 008°20'1211.8
2017-Jan-12 04:33N 53°57' E 008°39'1111.2
2017-Jan-12 03:33N 53°51' E 008°54'10 9.8
2017-Jan-12 02:33N 53°53' E 009°11'1110.6
2017-Jan-12 01:33N 53°46' E 009°24'1110.7
2017-Jan-12 00:33N 53°37' E 009°34'9 9.3
2017-Jan-11 23:33N 53°33' E 009°48'5 5.5
2017-Jan-11 22:33N 53°31' E 009°57'1 0.8
2017-Jan-11 21:32N 53°30' E 009°58'0 0.0
2017-Jan-11 20:32N 53°30' E 009°58'0 0.0
2017-Jan-11 19:32N 53°30' E 009°58'0 0.0
2017-Jan-11 18:32N 53°30' E 009°58'0 0.0
2017-Jan-11 17:32N 53°30' E 009°58'0 0.0
2017-Jan-11 16:32N 53°30' E 009°58'0 0.0
2017-Jan-11 15:32N 53°30' E 009°58'0 0.0
2017-Jan-11 14:32N 53°30' E 009°58'0 0.0
2017-Jan-11 13:26N 53°30' E 009°58'0 0.0
2017-Jan-11 12:29N 53°30' E 009°58'0 0.0
2017-Jan-11 11:32N 53°30' E 009°58'0 0.0
2017-Jan-11 10:32N 53°30' E 009°58'0 0.0
2017-Jan-11 09:32N 53°30' E 009°58'0 0.0
2017-Jan-11 08:32N 53°30' E 009°58'0 0.0
2017-Jan-11 07:32N 53°30' E 009°58'0 0.0
2017-Jan-11 06:32N 53°30' E 009°58'0 0.0
2017-Jan-11 05:29N 53°30' E 009°58'0 0.0
2017-Jan-11 04:32N 53°30' E 009°58'0 0.0
2017-Jan-11 03:32N 53°30' E 009°58'0 0.0
2017-Jan-11 02:29N 53°30' E 009°58'0 0.0
2017-Jan-11 01:32N 53°30' E 009°58'0 0.0
2017-Jan-11 00:29N 53°30' E 009°58'0 0.0
2017-Jan-10 23:32N 53°30' E 009°58'0 0.0
2017-Jan-10 22:32N 53°30' E 009°58'0 0.0
2017-Jan-10 21:32N 53°30' E 009°58'0 0.0
2017-Jan-10 20:32N 53°30' E 009°58'0 0.0
2017-Jan-10 19:29N 53°30' E 009°58'0 0.0
2017-Jan-10 18:26N 53°30' E 009°58'0 0.0
2017-Jan-10 17:32N 53°30' E 009°58'0 0.0
2017-Jan-10 16:32N 53°30' E 009°58'  

Dump ship's entire track history